Time;durP1;ratioP1;P1;durP2;ratioP2;P2;SDS_P1;SDS_P2;PMS_P1;PMS_P2;Temp;Humidity;BMP_temperature;BMP_pressure;BME280_temperature;BME280_humidity;BME280_pressure;Samples;Min_cycle;Max_cycle;Signal;HPM_P1;HPM_P2
2022/02/13 00:01:44;;;;;;;7.67;4.20;;;4.00;99.90;;;;;;5086113;28;20192;-43
2022/02/13 00:04:09;;;;;;;6.27;4.33;;;3.90;99.90;;;;;;5088140;28;20475;-42
2022/02/13 00:06:35;;;;;;;6.30;4.77;;;4.00;99.90;;;;;;5082509;28;20252;-39
2022/02/13 00:09:01;;;;;;;7.50;4.33;;;4.10;99.90;;;;;;5085946;28;20219;-41
2022/02/13 00:11:26;;;;;;;10.53;5.20;;;3.90;99.90;;;;;;5088390;28;20543;-39
2022/02/13 00:13:52;;;;;;;6.50;5.27;;;3.90;99.90;;;;;;5089008;28;20184;-39
2022/02/13 00:16:18;;;;;;;6.40;4.27;;;3.90;99.90;;;;;;5088836;28;20188;-40
2022/02/13 00:18:44;;;;;;;10.97;5.40;;;4.00;99.90;;;;;;5088781;28;20220;-41
2022/02/13 00:21:10;;;;;;;8.13;4.80;;;3.80;99.90;;;;;;5082205;28;20215;-40
2022/02/13 00:23:36;;;;;;;7.90;4.90;;;3.70;99.90;;;;;;5083157;28;20414;-40
2022/02/13 00:26:02;;;;;;;9.07;4.97;;;4.00;99.90;;;;;;5089230;28;20921;-41
2022/02/13 00:28:28;;;;;;;11.40;5.20;;;3.90;99.90;;;;;;5088674;28;21005;-39
2022/02/13 00:30:54;;;;;;;6.67;4.40;;;3.80;99.90;;;;;;5088114;28;20529;-39
2022/02/13 00:33:20;;;;;;;8.40;4.87;;;4.10;99.90;;;;;;5088857;28;20237;-39
2022/02/13 00:35:46;;;;;;;8.80;5.53;;;3.90;99.90;;;;;;5087731;28;20183;-39
2022/02/13 00:38:13;;;;;;;8.03;4.50;;;3.90;99.90;;;;;;5083178;28;20216;-40
2022/02/13 00:40:39;;;;;;;6.37;5.07;;;3.80;99.90;;;;;;5088300;28;20427;-39
2022/02/13 00:43:05;;;;;;;7.97;4.87;;;4.00;99.90;;;;;;5088628;28;20442;-42
2022/02/13 00:45:31;;;;;;;8.67;5.10;;;3.80;99.90;;;;;;5088365;28;20188;-41
2022/02/13 00:47:57;;;;;;;5.80;4.33;;;4.10;99.90;;;;;;5088177;28;20512;-39
2022/02/13 00:50:24;;;;;;;5.83;4.97;;;4.00;99.90;;;;;;5087470;28;20427;-41
2022/02/13 00:52:50;;;;;;;8.33;6.00;;;3.80;99.90;;;;;;5077878;28;20426;-40
2022/02/13 00:55:15;;;;;;;6.30;4.30;;;3.90;99.90;;;;;;5087880;28;20453;-39
2022/02/13 00:57:41;;;;;;;7.83;5.20;;;3.80;99.90;;;;;;5087048;28;20216;-39
2022/02/13 01:00:08;;;;;;;7.27;4.40;;;3.80;99.90;;;;;;5087446;28;20187;-42
2022/02/13 01:02:34;;;;;;;4.73;4.20;;;3.80;99.90;;;;;;5087938;28;20374;-41
2022/02/13 01:04:59;;;;;;;6.77;4.70;;;3.90;99.90;;;;;;5087860;28;20393;-40
2022/02/13 01:07:25;;;;;;;6.63;4.67;;;3.90;99.90;;;;;;5066952;28;20189;-46
2022/02/13 01:09:51;;;;;;;4.50;4.10;;;3.80;99.90;;;;;;5087341;28;20565;-41
2022/02/13 01:12:18;;;;;;;8.60;4.97;;;3.90;99.90;;;;;;5087513;28;20198;-39
2022/02/13 01:14:43;;;;;;;7.83;4.50;;;3.80;99.90;;;;;;5088430;28;20792;-39
2022/02/13 01:17:09;;;;;;;7.70;4.83;;;3.70;99.90;;;;;;5087472;28;20465;-40
2022/02/13 01:19:35;;;;;;;8.00;4.80;;;3.80;99.90;;;;;;5087381;28;20184;-39
2022/02/13 01:22:04;;;;;;;7.73;4.87;;;3.60;99.90;;;;;;5082180;28;20430;-40
2022/02/13 01:24:31;;;;;;;7.20;5.03;;;3.70;99.90;;;;;;5086158;28;20419;-42
2022/02/13 01:26:57;;;;;;;8.40;5.17;;;3.70;99.90;;;;;;5087587;28;20457;-42
2022/02/13 01:29:23;;;;;;;11.63;5.43;;;3.90;99.90;;;;;;5087649;28;20863;-41
2022/02/13 01:31:49;;;;;;;5.60;4.40;;;3.60;99.90;;;;;;5086399;28;20433;-42
2022/02/13 01:34:19;;;;;;;6.60;4.53;;;3.60;99.90;;;;;;5087800;28;20928;-39
2022/02/13 01:36:46;;;;;;;7.80;4.40;;;3.50;99.90;;;;;;5082209;28;20585;-40
2022/02/13 01:39:11;;;;;;;7.47;5.40;;;3.70;99.90;;;;;;5083587;28;20419;-39
2022/02/13 01:41:38;;;;;;;7.90;5.10;;;3.80;99.90;;;;;;5086725;28;20948;-40
2022/02/13 01:44:04;;;;;;;5.97;4.57;;;3.60;99.90;;;;;;5087561;28;20283;-40
2022/02/13 01:46:30;;;;;;;6.73;4.90;;;3.60;99.90;;;;;;5087048;28;20426;-39
2022/02/13 01:48:56;;;;;;;8.97;4.83;;;3.60;99.90;;;;;;5087350;28;20822;-41
2022/02/13 01:51:23;;;;;;;7.90;4.70;;;3.70;99.90;;;;;;5084844;28;20516;-39
2022/02/13 01:53:49;;;;;;;7.17;4.77;;;3.80;99.90;;;;;;5079630;28;20541;-42
2022/02/13 01:56:16;;;;;;;5.80;4.20;;;3.70;99.90;;;;;;5087183;28;20916;-39
2022/02/13 01:58:43;;;;;;;6.70;4.60;;;3.60;99.90;;;;;;5087140;28;20468;-43
2022/02/13 02:01:10;;;;;;;7.73;4.83;;;3.80;99.90;;;;;;5085155;28;21160;-40
2022/02/13 02:03:36;;;;;;;7.60;4.40;;;3.70;99.90;;;;;;5086998;28;20429;-41
2022/02/13 02:06:02;;;;;;;7.90;4.47;;;3.70;99.90;;;;;;5087932;28;20825;-39
2022/02/13 02:08:27;;;;;;;6.80;4.60;;;3.70;99.90;;;;;;5073231;28;20993;-43
2022/02/13 02:10:54;;;;;;;6.00;4.80;;;3.60;99.90;;;;;;5085008;28;20509;-41
2022/02/13 02:13:20;;;;;;;8.17;4.93;;;3.70;99.90;;;;;;5087024;28;20314;-40
2022/02/13 02:15:45;;;;;;;6.90;4.13;;;3.60;99.90;;;;;;5086792;28;20877;-40
2022/02/13 02:18:11;;;;;;;5.97;4.90;;;3.60;99.90;;;;;;5087191;28;20305;-43
2022/02/13 02:20:37;;;;;;;5.20;4.20;;;3.60;99.90;;;;;;5086227;28;20279;-40
2022/02/13 02:23:03;;;;;;;5.90;4.70;;;3.70;99.90;;;;;;5075045;28;20196;-41
2022/02/13 02:25:29;;;;;;;6.70;4.70;;;3.60;99.90;;;;;;5089073;28;20467;-40
2022/02/13 02:27:54;;;;;;;5.83;4.07;;;3.60;99.90;;;;;;5090896;28;20271;-39
2022/02/13 02:30:20;;;;;;;6.90;4.90;;;3.90;99.90;;;;;;5089981;28;20184;-39
2022/02/13 02:32:46;;;;;;;5.77;4.73;;;3.80;99.90;;;;;;5091131;28;20188;-40
2022/02/13 02:35:12;;;;;;;6.03;4.23;;;3.60;99.90;;;;;;5090749;28;20403;-40
2022/02/13 02:37:38;;;;;;;5.97;4.80;;;3.80;99.90;;;;;;5084042;28;20243;-40
2022/02/13 02:40:04;;;;;;;8.00;5.07;;;3.70;99.90;;;;;;5088775;28;20470;-41
2022/02/13 02:42:30;;;;;;;10.67;4.47;;;3.60;99.90;;;;;;5091106;28;20199;-41
2022/02/13 02:44:55;;;;;;;7.90;4.13;;;3.80;99.90;;;;;;5090166;28;20422;-39
2022/02/13 02:47:21;;;;;;;7.27;4.50;;;3.70;99.90;;;;;;5090782;28;20271;-42
2022/02/13 02:49:47;;;;;;;6.80;5.03;;;3.70;99.90;;;;;;5090286;28;20493;-39
2022/02/13 02:52:12;;;;;;;7.30;5.30;;;3.80;99.90;;;;;;5086251;28;20659;-39
2022/02/13 02:54:38;;;;;;;4.60;4.10;;;3.80;99.90;;;;;;5088424;28;20226;-42
2022/02/13 02:57:04;;;;;;;7.07;4.50;;;3.60;99.90;;;;;;5090272;28;20216;-39
2022/02/13 02:59:30;;;;;;;6.43;4.97;;;3.60;99.90;;;;;;5090120;28;20685;-40
2022/02/13 03:01:55;;;;;;;7.80;4.50;;;3.70;99.90;;;;;;5089959;28;20430;-39
2022/02/13 03:04:21;;;;;;;7.80;4.50;;;3.70;99.90;;;;;;5090383;28;20196;-43
2022/02/13 03:06:47;;;;;;;7.20;4.63;;;3.60;99.90;;;;;;5088863;28;20192;-39
2022/02/13 03:09:12;;;;;;;6.20;4.87;;;3.50;99.90;;;;;;5076257;28;20275;-41
2022/02/13 03:11:38;;;;;;;9.20;5.13;;;3.50;99.90;;;;;;5087846;28;20193;-39
2022/02/13 03:14:04;;;;;;;5.67;4.80;;;3.60;99.90;;;;;;5089781;28;20257;-39
2022/02/13 03:16:30;;;;;;;6.83;4.50;;;3.60;99.90;;;;;;5089935;28;20173;-41
2022/02/13 03:18:55;;;;;;;6.93;4.00;;;3.60;99.90;;;;;;5088513;28;21053;-39
2022/02/13 03:21:21;;;;;;;7.77;6.03;;;3.40;99.90;;;;;;5088237;28;20583;-39
2022/02/13 03:23:47;;;;;;;6.13;4.40;;;3.40;99.90;;;;;;5078480;28;20180;-42
2022/02/13 03:26:12;;;;;;;9.87;4.43;;;3.40;99.90;;;;;;5089594;28;20189;-42
2022/02/13 03:28:38;;;;;;;6.47;4.33;;;3.50;99.90;;;;;;5089906;28;20188;-39
2022/02/13 03:31:04;;;;;;;5.87;4.77;;;3.50;99.90;;;;;;5089343;28;20196;-41
2022/02/13 03:33:29;;;;;;;4.23;3.83;;;3.50;99.90;;;;;;5089241;28;20196;-43
2022/02/13 03:35:55;;;;;;;5.50;3.90;;;3.60;99.90;;;;;;5089789;28;20274;-41
2022/02/13 03:38:21;;;;;;;5.43;4.37;;;3.30;99.90;;;;;;5080787;28;20269;-38
2022/02/13 03:40:47;;;;;;;5.77;4.27;;;3.60;99.90;;;;;;5088950;28;20192;-39
2022/02/13 03:43:13;;;;;;;8.70;4.00;;;3.50;99.90;;;;;;5089154;28;20196;-38
2022/02/13 03:45:39;;;;;;;5.70;4.47;;;3.60;99.90;;;;;;5089410;28;20476;-40
2022/02/13 03:48:04;;;;;;;5.93;4.10;;;3.50;99.90;;;;;;5089364;28;20284;-39
2022/02/13 03:50:30;;;;;;;6.60;3.80;;;3.50;99.90;;;;;;5088782;28;20192;-39
2022/02/13 03:52:56;;;;;;;8.40;4.30;;;3.30;99.90;;;;;;5082289;28;20298;-39
2022/02/13 03:55:22;;;;;;;7.63;4.10;;;3.40;99.90;;;;;;5086259;28;20543;-39
2022/02/13 03:57:47;;;;;;;7.30;4.17;;;3.40;99.90;;;;;;5089299;28;20223;-41
2022/02/13 04:00:13;;;;;;;8.63;4.53;;;3.30;99.90;;;;;;5088337;28;20223;-43
2022/02/13 04:02:42;;;;;;;6.53;4.30;;;3.30;99.90;;;;;;5089001;28;20179;-43
2022/02/13 04:05:09;;;;;;;11.30;5.07;;;3.30;99.90;;;;;;5088734;28;20419;-40
2022/02/13 04:07:40;;;;;;;5.30;4.13;;;3.30;99.90;;;;;;5085489;28;20774;-40
2022/02/13 04:10:07;;;;;;;7.53;4.60;;;3.20;99.90;;;;;;5082582;28;20449;-42
2022/02/13 04:12:32;;;;;;;9.60;5.27;;;3.30;99.90;;;;;;5088967;28;20456;-40
2022/02/13 04:14:58;;;;;;;5.33;4.50;;;3.40;99.90;;;;;;5088791;28;20781;-39
2022/02/13 04:17:24;;;;;;;5.70;3.70;;;3.30;99.90;;;;;;5088532;28;20742;-40
2022/02/13 04:19:50;;;;;;;5.93;3.87;;;3.20;99.90;;;;;;5088002;28;20578;-42
2022/02/13 04:22:15;;;;;;;6.13;4.07;;;3.50;99.90;;;;;;5087150;28;20195;-41
2022/02/13 04:24:41;;;;;;;9.13;3.97;;;3.30;99.90;;;;;;5071126;28;20437;-39
2022/02/13 04:27:07;;;;;;;8.23;3.90;;;3.50;99.90;;;;;;5088293;28;20558;-39
2022/02/13 04:29:32;;;;;;;6.20;3.80;;;3.40;99.90;;;;;;5088149;28;20275;-40
2022/02/13 04:31:58;;;;;;;10.27;4.47;;;3.40;99.90;;;;;;5088213;28;20196;-39
2022/02/13 04:34:24;;;;;;;6.33;4.17;;;3.30;99.90;;;;;;5088443;28;20330;-39
2022/02/13 04:36:49;;;;;;;6.50;4.13;;;3.20;99.90;;;;;;5087911;28;20669;-41
2022/02/13 04:39:15;;;;;;;5.03;4.27;;;3.40;99.90;;;;;;5074443;28;20655;-42
2022/02/13 04:41:41;;;;;;;6.27;4.30;;;3.30;99.90;;;;;;5086799;28;20283;-41
2022/02/13 04:44:06;;;;;;;5.33;3.43;;;3.40;99.90;;;;;;5079069;28;20233;-39
2022/02/13 04:46:32;;;;;;;5.60;4.10;;;3.20;99.90;;;;;;5086875;28;20192;-40
2022/02/13 04:48:58;;;;;;;6.63;3.67;;;3.10;99.90;;;;;;5086877;28;20199;-41
2022/02/13 04:51:24;;;;;;;10.20;4.40;;;3.30;99.90;;;;;;5087565;28;20184;-40
2022/02/13 04:53:49;;;;;;;5.73;4.23;;;3.20;99.90;;;;;;5078327;28;20353;-40
2022/02/13 04:56:16;;;;;;;6.80;4.50;;;3.30;99.90;;;;;;5085117;28;20666;-41
2022/02/13 04:58:42;;;;;;;5.03;4.03;;;3.20;99.90;;;;;;5087486;28;20200;-41
2022/02/13 05:01:08;;;;;;;9.37;4.57;;;3.40;99.90;;;;;;5086752;28;20426;-40
2022/02/13 05:03:34;;;;;;;6.80;4.13;;;3.10;99.90;;;;;;5087318;28;20476;-39
2022/02/13 05:05:59;;;;;;;7.27;4.57;;;3.10;99.90;;;;;;5086547;28;20449;-39
2022/02/13 05:08:25;;;;;;;4.90;3.80;;;3.10;99.90;;;;;;5079392;28;20200;-39
2022/02/13 05:10:51;;;;;;;6.13;4.47;;;2.90;99.90;;;;;;5086166;28;20650;-39
2022/02/13 05:13:16;;;;;;;5.37;4.43;;;3.20;99.90;;;;;;5085852;28;20857;-41
2022/02/13 05:15:42;;;;;;;5.40;4.00;;;3.30;99.90;;;;;;5084318;28;20604;-42
2022/02/13 05:18:08;;;;;;;6.93;4.30;;;3.20;99.90;;;;;;5087394;28;20218;-42
2022/02/13 05:20:33;;;;;;;7.03;4.67;;;3.00;99.90;;;;;;5086627;28;20196;-40
2022/02/13 05:22:59;;;;;;;5.63;3.70;;;3.30;99.90;;;;;;5081946;28;20435;-41
2022/02/13 05:25:25;;;;;;;6.67;4.03;;;3.40;99.90;;;;;;5080096;28;20210;-39
2022/02/13 05:27:51;;;;;;;5.67;3.67;;;3.10;99.90;;;;;;5087307;28;20196;-41
2022/02/13 05:30:17;;;;;;;7.43;4.20;;;3.20;99.90;;;;;;5087057;28;20211;-39
2022/02/13 05:32:43;;;;;;;8.03;4.30;;;3.30;99.90;;;;;;5087178;28;20933;-40
2022/02/13 05:35:09;;;;;;;5.80;4.27;;;3.20;99.90;;;;;;5087262;28;20192;-43
2022/02/13 05:37:36;;;;;;;5.70;4.40;;;3.30;99.90;;;;;;5087093;28;20489;-41
2022/02/13 05:40:02;;;;;;;6.90;3.90;;;3.10;99.90;;;;;;5074489;28;20957;-40
2022/02/13 05:42:28;;;;;;;4.23;3.60;;;3.30;99.90;;;;;;5087258;28;20989;-39
2022/02/13 05:44:54;;;;;;;4.43;3.90;;;3.10;99.90;;;;;;5087135;28;20426;-39
2022/02/13 05:47:21;;;;;;;4.30;3.80;;;2.90;99.90;;;;;;5085987;28;20293;-42
2022/02/13 05:49:47;;;;;;;4.87;3.73;;;3.10;99.90;;;;;;5083345;28;20414;-42
2022/02/13 05:52:13;;;;;;;4.80;3.80;;;3.30;99.90;;;;;;5086612;28;20942;-41
2022/02/13 05:54:39;;;;;;;6.13;3.90;;;3.30;99.90;;;;;;5075853;28;20586;-40
2022/02/13 05:57:05;;;;;;;4.30;3.70;;;3.10;99.90;;;;;;5087069;28;20928;-40
2022/02/13 05:59:31;;;;;;;5.87;4.13;;;3.40;99.90;;;;;;5087160;28;20192;-41
2022/02/13 06:01:57;;;;;;;5.70;4.07;;;3.40;99.90;;;;;;5086219;28;20939;-41
2022/02/13 06:04:24;;;;;;;6.80;3.67;;;3.20;99.90;;;;;;5086635;28;20423;-44
2022/02/13 06:06:52;;;;;;;6.10;3.87;;;3.40;99.90;;;;;;5086559;28;20184;-40
2022/02/13 06:09:18;;;;;;;4.70;3.97;;;3.10;99.90;;;;;;5080758;28;20426;-41
2022/02/13 06:11:44;;;;;;;5.17;3.90;;;3.50;99.90;;;;;;5086326;28;20419;-40
2022/02/13 06:14:11;;;;;;;7.03;4.30;;;3.10;99.90;;;;;;5086990;28;20418;-39
2022/02/13 06:16:36;;;;;;;4.90;3.77;;;3.30;99.90;;;;;;5085519;28;20513;-45
2022/02/13 06:19:02;;;;;;;6.60;3.53;;;3.30;99.90;;;;;;5086650;28;20607;-42
2022/02/13 06:21:28;;;;;;;5.97;3.90;;;3.40;99.90;;;;;;5084795;28;20429;-39
2022/02/13 06:23:54;;;;;;;5.90;3.80;;;3.40;99.90;;;;;;5079598;28;20435;-40
2022/02/13 06:26:19;;;;;;;5.10;3.50;;;3.40;99.90;;;;;;5083406;28;20299;-44
2022/02/13 06:28:45;;;;;;;6.07;4.20;;;3.40;99.90;;;;;;5086535;28;20673;-39
2022/02/13 06:31:12;;;;;;;4.30;3.73;;;3.20;99.90;;;;;;5085912;28;20348;-39
2022/02/13 06:33:38;;;;;;;5.77;4.27;;;3.30;99.90;;;;;;5086658;28;20192;-42
2022/02/13 06:36:03;;;;;;;4.67;4.00;;;3.30;99.90;;;;;;5086318;28;20779;-42
2022/02/13 06:38:29;;;;;;;6.73;4.40;;;3.40;99.90;;;;;;5084738;28;20484;-40
2022/02/13 06:40:55;;;;;;;6.20;3.80;;;3.30;99.90;;;;;;5078003;28;20212;-41
2022/02/13 06:43:20;;;;;;;7.63;4.90;;;3.20;99.90;;;;;;5086550;28;20242;-39
2022/02/13 06:45:46;;;;;;;11.30;4.90;;;3.10;99.90;;;;;;5085186;28;20197;-44
2022/02/13 06:48:12;;;;;;;5.30;4.13;;;3.20;99.90;;;;;;5086838;28;20200;-39
2022/02/13 06:50:38;;;;;;;6.50;4.47;;;3.10;99.90;;;;;;5086128;28;20200;-39
2022/02/13 06:53:04;;;;;;;4.93;4.43;;;3.10;99.90;;;;;;5081157;28;20189;-39
2022/02/13 06:55:30;;;;;;;6.90;4.37;;;3.20;99.90;;;;;;5074408;28;20733;-40
2022/02/13 06:57:57;;;;;;;5.73;4.33;;;3.30;99.90;;;;;;5085891;28;20482;-41
2022/02/13 07:00:23;;;;;;;7.07;4.80;;;3.40;99.90;;;;;;5085850;28;20788;-39
2022/02/13 07:02:49;;;;;;;6.97;4.50;;;3.20;99.90;;;;;;5086250;28;20430;-39
2022/02/13 07:05:15;;;;;;;8.50;4.93;;;3.40;99.90;;;;;;5085908;28;20414;-40
2022/02/13 07:07:42;;;;;;;5.53;4.43;;;3.20;99.90;;;;;;5086215;28;20418;-39
2022/02/13 07:10:09;;;;;;;5.20;4.30;;;3.40;99.90;;;;;;5077927;28;20457;-40
2022/02/13 07:12:36;;;;;;;4.17;3.70;;;3.30;99.90;;;;;;5088821;28;20422;-39
2022/02/13 07:15:02;;;;;;;6.50;3.87;;;3.40;99.90;;;;;;5090272;28;20433;-44
2022/02/13 07:17:28;;;;;;;5.73;4.97;;;3.40;99.90;;;;;;5090000;28;20458;-41
2022/02/13 07:19:53;;;;;;;5.70;4.00;;;3.50;99.90;;;;;;5088678;28;20426;-39
2022/02/13 07:22:21;;;;;;;6.13;4.20;;;3.30;99.90;;;;;;5088742;28;20558;-39
2022/02/13 07:24:47;;;;;;;5.40;4.20;;;3.40;99.90;;;;;;5083869;28;20184;-45
2022/02/13 07:27:13;;;;;;;5.63;4.10;;;3.50;99.90;;;;;;5088942;28;20928;-41
2022/02/13 07:29:38;;;;;;;5.33;3.90;;;3.50;99.90;;;;;;5088484;28;20184;-40
2022/02/13 07:32:04;;;;;;;5.20;4.33;;;3.40;99.90;;;;;;5089524;28;20246;-40
2022/02/13 07:34:31;;;;;;;4.07;3.67;;;3.60;99.90;;;;;;5089226;28;20184;-39
2022/02/13 07:37:01;;;;;;;6.50;3.90;;;3.60;99.90;;;;;;5088214;28;20559;-43
2022/02/13 07:39:32;;;;;;;8.70;5.00;;;3.50;99.90;;;;;;5084207;28;20850;-39
2022/02/13 07:41:58;;;;;;;7.17;4.07;;;3.70;99.90;;;;;;5086206;28;20787;-39
2022/02/13 07:44:24;;;;;;;5.83;4.17;;;3.90;99.90;;;;;;5089438;28;20437;-39
2022/02/13 07:46:50;;;;;;;5.97;4.50;;;3.80;99.90;;;;;;5088916;28;20406;-40
2022/02/13 07:49:16;;;;;;;7.93;4.47;;;3.90;99.90;;;;;;5088986;28;20452;-39
2022/02/13 07:51:41;;;;;;;5.47;4.30;;;3.90;99.80;;;;;;5087657;28;20214;-39
2022/02/13 07:54:07;;;;;;;4.50;3.73;;;4.10;99.50;;;;;;5087658;28;20904;-41
2022/02/13 07:56:33;;;;;;;6.23;4.43;;;4.10;99.60;;;;;;5087706;28;20208;-40
2022/02/13 07:58:59;;;;;;;6.37;4.37;;;4.20;99.20;;;;;;5088943;28;20250;-44
2022/02/13 08:01:24;;;;;;;7.13;4.20;;;4.40;99.20;;;;;;5087190;28;20197;-39
2022/02/13 08:03:51;;;;;;;7.87;4.60;;;4.20;99.10;;;;;;5089065;28;20659;-44
2022/02/13 08:06:18;;;;;;;6.30;4.30;;;4.30;98.70;;;;;;5088782;28;20725;-40
2022/02/13 08:08:45;;;;;;;4.73;3.90;;;4.50;98.70;;;;;;5088765;28;20429;-42
2022/02/13 08:11:12;;;;;;;5.30;4.50;;;4.80;98.70;;;;;;5078530;28;20529;-39
2022/02/13 08:13:38;;;;;;;7.40;4.00;;;5.00;98.20;;;;;;5088867;28;20433;-41
2022/02/13 08:16:04;;;;;;;5.80;4.00;;;5.10;97.60;;;;;;5088241;28;20456;-44
2022/02/13 08:18:30;;;;;;;5.57;4.20;;;5.40;97.40;;;;;;5088614;28;20458;-42
2022/02/13 08:20:55;;;;;;;4.63;3.90;;;5.70;97.10;;;;;;5086687;28;20184;-40
2022/02/13 08:23:22;;;;;;;4.97;4.47;;;5.90;96.60;;;;;;5087928;28;20434;-43
2022/02/13 08:25:48;;;;;;;5.80;4.27;;;6.30;96.40;;;;;;5079546;28;20594;-39
2022/02/13 08:28:15;;;;;;;5.80;4.20;;;6.60;95.70;;;;;;5088374;28;20539;-40
2022/02/13 08:30:41;;;;;;;5.33;3.47;;;6.90;95.10;;;;;;5087862;28;20797;-40
2022/02/13 08:33:08;;;;;;;6.23;5.17;;;7.20;94.30;;;;;;5088196;28;20935;-43
2022/02/13 08:35:34;;;;;;;6.03;4.17;;;7.40;93.80;;;;;;5087080;28;20423;-40
2022/02/13 08:38:00;;;;;;;5.00;3.87;;;7.20;94.30;;;;;;5088008;28;20541;-43
2022/02/13 08:40:27;;;;;;;5.80;4.60;;;7.50;94.00;;;;;;5079458;28;20431;-41
2022/02/13 08:42:53;;;;;;;5.60;4.43;;;7.70;94.00;;;;;;5088292;28;20418;-41
2022/02/13 08:45:18;;;;;;;5.03;4.20;;;7.90;93.60;;;;;;5086579;28;20972;-40
2022/02/13 08:47:45;;;;;;;4.90;4.10;;;7.90;93.50;;;;;;5088100;28;20569;-40
2022/02/13 08:50:11;;;;;;;6.03;4.40;;;8.00;93.70;;;;;;5075811;28;20614;-41
2022/02/13 08:52:37;;;;;;;4.63;4.10;;;8.00;93.30;;;;;;5083652;28;20438;-40
2022/02/13 08:55:03;;;;;;;4.20;3.80;;;8.20;93.10;;;;;;5082582;28;20511;-39
2022/02/13 08:57:29;;;;;;;5.07;3.37;;;7.90;92.30;;;;;;5082567;28;20462;-41
2022/02/13 08:59:54;;;;;;;4.63;4.20;;;8.00;92.50;;;;;;5085840;28;20422;-40
2022/02/13 09:02:20;;;;;;;4.43;4.03;;;8.10;92.30;;;;;;5086528;28;20592;-39
2022/02/13 09:04:46;;;;;;;4.47;3.60;;;8.10;92.00;;;;;;5086158;28;20198;-39
2022/02/13 09:07:11;;;;;;;4.93;4.00;;;8.00;92.20;;;;;;5086280;28;20196;-39
2022/02/13 09:09:37;;;;;;;8.10;4.37;;;7.90;91.70;;;;;;5082281;28;20261;-42
2022/02/13 09:12:03;;;;;;;5.07;4.17;;;8.10;92.00;;;;;;5081434;28;20246;-39
2022/02/13 09:14:28;;;;;;;5.23;4.30;;;8.20;91.70;;;;;;5086165;28;20188;-41
2022/02/13 09:16:54;;;;;;;5.17;3.70;;;8.10;91.90;;;;;;5087511;28;20592;-41
2022/02/13 09:19:21;;;;;;;4.83;3.73;;;7.90;91.40;;;;;;5087666;28;20181;-40
2022/02/13 09:21:52;;;;;;;5.27;4.10;;;8.20;91.40;;;;;;5087096;28;20234;-40
2022/02/13 09:24:19;;;;;;;8.60;4.63;;;8.10;90.80;;;;;;5084655;28;20435;-41
2022/02/13 09:26:45;;;;;;;5.50;3.87;;;8.30;91.10;;;;;;5081382;28;20865;-43
2022/02/13 09:29:11;;;;;;;4.40;4.00;;;8.70;90.40;;;;;;5087469;28;20494;-39
2022/02/13 09:31:37;;;;;;;4.83;3.50;;;8.70;90.40;;;;;;5086657;28;20787;-40
2022/02/13 09:34:02;;;;;;;5.43;3.70;;;8.90;89.50;;;;;;5084708;28;20434;-43
2022/02/13 09:36:28;;;;;;;4.20;3.80;;;8.90;89.20;;;;;;5083495;28;20189;-39
2022/02/13 09:38:54;;;;;;;4.40;4.00;;;8.80;89.40;;;;;;5087475;28;20220;-41
2022/02/13 09:41:21;;;;;;;6.67;4.50;;;8.90;90.30;;;;;;5080846;28;20176;-40
2022/02/13 09:43:47;;;;;;;5.47;4.33;;;8.90;89.70;;;;;;5086399;28;20438;-40
2022/02/13 09:46:15;;;;;;;5.37;4.30;;;9.00;90.20;;;;;;5084717;28;20444;-39
2022/02/13 09:48:41;;;;;;;4.90;4.33;;;8.90;89.20;;;;;;5086479;28;20437;-40
2022/02/13 09:51:09;;;;;;;5.03;4.47;;;9.00;90.00;;;;;;5086523;28;20521;-40
2022/02/13 09:53:35;;;;;;;6.27;4.70;;;9.20;90.10;;;;;;5087518;28;20446;-40
2022/02/13 09:56:06;;;;;;;5.13;4.10;;;9.20;89.20;;;;;;5078782;28;20489;-41
2022/02/13 09:58:32;;;;;;;5.83;3.80;;;9.30;88.80;;;;;;5085711;28;20466;-41
2022/02/13 10:01:00;;;;;;;5.20;4.23;;;9.50;87.90;;;;;;5085915;28;20979;-42
2022/02/13 10:03:27;;;;;;;7.00;4.70;;;9.40;89.60;;;;;;5085577;28;20422;-40
2022/02/13 10:06:00;;;;;;;5.50;4.10;;;9.80;88.70;;;;;;5084003;28;20437;-41
2022/02/13 10:08:38;;;;;;;5.47;4.40;;;9.80;88.10;;;;;;5085546;28;20425;-40
2022/02/13 10:11:14;;;;;;;5.53;3.80;;;10.00;85.70;;;;;;5067612;28;20430;-42
2022/02/13 10:13:47;;;;;;;4.53;4.10;;;9.80;86.40;;;;;;5084853;28;20453;-40
2022/02/13 10:16:23;;;;;;;4.43;3.87;;;9.90;86.50;;;;;;5085042;28;20471;-41
2022/02/13 10:18:55;;;;;;;3.87;3.50;;;9.90;86.30;;;;;;5084707;28;20477;-42
2022/02/13 10:21:51;;;;;;;4.13;3.70;;;9.90;84.90;;;;;;5084512;28;20500;-41
2022/02/13 10:24:25;;;;;;;5.53;3.30;;;9.90;85.10;;;;;;5085967;28;20828;-40
2022/02/13 10:26:56;;;;;;;5.47;3.90;;;10.20;85.10;;;;;;5074872;28;20567;-41
2022/02/13 10:29:32;;;;;;;3.63;3.30;;;10.20;83.70;;;;;;5086991;28;20399;-42
2022/02/13 10:32:21;;;;;;;4.33;3.93;;;10.70;83.30;;;;;;5087100;28;20414;-41
2022/02/13 10:35:07;;;;;;;3.70;3.30;;;10.50;78.80;;;;;;5087085;28;20410;-41
2022/02/13 10:37:40;;;;;;;5.00;3.17;;;10.80;80.30;;;;;;5087054;28;20465;-41
2022/02/13 10:40:11;;;;;;;4.23;3.50;;;10.80;78.20;;;;;;5084008;28;20446;-40
2022/02/13 10:42:37;;;;;;;3.30;3.00;;;10.60;76.50;;;;;;5081072;28;20449;-42
2022/02/13 10:45:16;;;;;;;4.53;3.50;;;10.60;76.20;;;;;;5089709;28;20636;-41
2022/02/13 10:47:44;;;;;;;3.40;3.10;;;10.50;77.60;;;;;;5091353;28;20749;-44
2022/02/13 10:50:10;;;;;;;3.77;3.20;;;10.60;77.90;;;;;;5089737;28;20429;-42
2022/02/13 10:52:37;;;;;;;3.40;3.10;;;10.50;76.30;;;;;;5091024;28;20776;-41
2022/02/13 10:55:04;;;;;;;4.63;4.10;;;10.70;76.80;;;;;;5090492;28;20856;-42
2022/02/13 10:57:30;;;;;;;5.40;3.47;;;10.50;76.50;;;;;;5084248;28;20454;-41
2022/02/13 10:59:55;;;;;;;3.13;2.67;;;10.60;76.50;;;;;;5089864;28;20828;-41
2022/02/13 11:02:24;;;;;;;4.73;3.20;;;10.50;77.60;;;;;;5090519;28;20184;-40
2022/02/13 11:04:51;;;;;;;4.20;3.53;;;10.50;77.10;;;;;;5087521;28;20176;-40
2022/02/13 11:07:19;;;;;;;3.50;3.10;;;10.30;77.50;;;;;;5090724;28;20456;-41
2022/02/13 11:09:47;;;;;;;5.80;3.83;;;10.40;78.60;;;;;;5090026;28;20912;-40
2022/02/13 11:12:17;;;;;;;4.63;3.50;;;10.20;79.60;;;;;;5080052;28;20438;-42
2022/02/13 11:14:47;;;;;;;4.70;3.23;;;10.20;79.10;;;;;;5081958;28;20399;-40
2022/02/13 11:17:27;;;;;;;4.67;3.40;;;10.10;79.00;;;;;;5089811;28;20462;-41
2022/02/13 11:19:53;;;;;;;5.07;3.70;;;10.20;79.10;;;;;;5089640;28;20509;-41
2022/02/13 11:22:18;;;;;;;3.30;3.00;;;10.40;79.90;;;;;;5090102;28;20447;-42
2022/02/13 11:24:50;;;;;;;5.93;3.60;;;10.10;78.30;;;;;;5090198;28;20495;-40
2022/02/13 11:27:21;;;;;;;6.50;3.00;;;10.00;78.00;;;;;;5080376;28;20366;-43
2022/02/13 11:29:55;;;;;;;4.53;3.40;;;10.00;78.60;;;;;;5088572;28;20418;-40
2022/02/13 11:32:42;;;;;;;5.30;2.87;;;10.10;79.30;;;;;;5090120;28;20473;-41
2022/02/13 11:35:12;;;;;;;4.30;3.23;;;10.10;78.30;;;;;;5089763;28;20426;-40
2022/02/13 11:37:46;;;;;;;4.30;3.10;;;10.00;79.20;;;;;;5089778;28;20883;-43
2022/02/13 11:40:33;;;;;;;3.90;3.40;;;10.10;78.40;;;;;;5088928;28;20493;-41
2022/02/13 11:42:59;;;;;;;3.17;2.87;;;10.20;80.30;;;;;;5078850;28;20573;-40
2022/02/13 11:45:24;;;;;;;4.37;3.30;;;10.30;79.40;;;;;;5089988;28;20410;-41
2022/02/13 11:47:50;;;;;;;4.53;3.50;;;10.30;79.00;;;;;;5089403;28;20467;-39
2022/02/13 11:50:26;;;;;;;3.67;2.47;;;10.40;78.20;;;;;;5088987;28;20680;-41
2022/02/13 11:52:58;;;;;;;4.27;3.37;;;10.20;77.80;;;;;;5089277;28;20183;-40
2022/02/13 11:55:28;;;;;;;6.77;3.30;;;10.40;79.00;;;;;;5087787;28;20780;-41
2022/02/13 11:58:01;;;;;;;4.50;3.93;;;10.40;79.00;;;;;;5076906;28;20576;-41
2022/02/13 12:00:40;;;;;;;3.43;3.10;;;10.40;76.60;;;;;;5088892;28;20486;-41
2022/02/13 12:03:21;;;;;;;4.53;3.20;;;10.50;78.00;;;;;;5077587;28;20419;-40
2022/02/13 12:05:51;;;;;;;5.73;3.47;;;10.60;77.40;;;;;;5087648;28;20430;-42
2022/02/13 12:08:22;;;;;;;4.10;3.30;;;10.70;77.70;;;;;;5089306;28;20501;-42
2022/02/13 12:10:48;;;;;;;4.17;3.43;;;10.60;78.60;;;;;;5087393;28;20410;-40
2022/02/13 12:13:15;;;;;;;4.70;3.20;;;10.60;78.10;;;;;;5083838;28;20422;-40
2022/02/13 12:15:52;;;;;;;3.90;2.93;;;10.60;78.50;;;;;;5088615;28;20742;-41
2022/02/13 12:18:18;;;;;;;7.40;3.10;;;10.50;77.90;;;;;;5087788;28;20573;-40
2022/02/13 12:20:45;;;;;;;5.07;3.77;;;10.50;78.30;;;;;;5088433;28;20463;-41
2022/02/13 12:23:14;;;;;;;4.60;3.30;;;10.50;78.30;;;;;;5088751;28;20786;-40
2022/02/13 12:25:42;;;;;;;4.60;3.33;;;10.50;78.50;;;;;;5089271;28;20426;-40
2022/02/13 12:28:10;;;;;;;4.57;3.73;;;10.60;80.10;;;;;;5077573;28;20469;-40
2022/02/13 12:30:37;;;;;;;5.67;3.63;;;10.50;80.20;;;;;;5088063;28;20418;-42
2022/02/13 12:33:05;;;;;;;5.00;3.40;;;10.70;80.10;;;;;;5088932;28;20421;-43
2022/02/13 12:35:35;;;;;;;6.17;3.20;;;10.40;80.40;;;;;;5087223;28;20929;-40
2022/02/13 12:38:04;;;;;;;4.73;3.30;;;10.40;79.40;;;;;;5088727;28;20819;-40
2022/02/13 12:40:37;;;;;;;3.63;2.70;;;10.70;80.00;;;;;;5088033;28;20426;-41
2022/02/13 12:43:10;;;;;;;3.80;3.33;;;10.70;79.00;;;;;;5079208;28;20518;-41
2022/02/13 12:45:38;;;;;;;3.30;2.80;;;10.70;80.00;;;;;;5088343;28;20454;-40
2022/02/13 12:48:06;;;;;;;3.47;2.73;;;10.90;81.40;;;;;;5088923;28;20746;-40
2022/02/13 12:50:37;;;;;;;3.90;2.97;;;11.10;80.50;;;;;;5087585;28;20417;-41
2022/02/13 12:53:05;;;;;;;3.37;3.07;;;11.10;79.90;;;;;;5083339;28;20407;-44
2022/02/13 12:55:32;;;;;;;3.37;3.07;;;11.30;79.40;;;;;;5080005;28;20446;-44